createdAt,value
2022-08-17T00:02:25.866Z,31.30
2022-08-17T00:04:53.147Z,27.43
2022-08-17T00:07:19.497Z,28.92
2022-08-17T00:09:46.045Z,27.80
2022-08-17T00:12:43.259Z,27.38
2022-08-17T00:14:58.959Z,28.17
2022-08-17T00:17:25.469Z,27.47
2022-08-17T00:19:51.843Z,27.50
2022-08-17T00:22:34.671Z,28.85
2022-08-17T00:25:05.412Z,24.17
2022-08-17T00:27:31.834Z,25.90
2022-08-17T00:29:58.200Z,28.00
2022-08-17T00:33:15.710Z,25.80
2022-08-17T00:35:16.040Z,25.08
2022-08-17T00:37:42.393Z,26.17
2022-08-17T00:40:13.095Z,26.95
2022-08-17T00:42:39.965Z,26.23
2022-08-17T00:45:09.233Z,29.13
2022-08-17T00:47:36.060Z,27.63
2022-08-17T00:50:03.704Z,27.30
2022-08-17T00:52:37.408Z,28.77
2022-08-17T00:55:05.959Z,27.77
2022-08-17T00:57:36.840Z,26.95
2022-08-17T01:00:16.953Z,23.00
2022-08-17T01:02:45.662Z,22.52
2022-08-17T01:05:20.951Z,27.35
2022-08-17T01:07:50.582Z,21.47
2022-08-17T01:10:59.083Z,22.08
2022-08-17T01:13:07.439Z,22.52
2022-08-17T01:15:37.362Z,22.30
2022-08-17T01:18:10.441Z,20.50
2022-08-17T01:20:48.414Z,19.37
2022-08-17T01:23:19.898Z,20.42
2022-08-17T01:25:51.001Z,21.98
2022-08-17T01:28:40.701Z,20.10
2022-08-17T01:31:06.891Z,18.30
2022-08-17T01:33:33.919Z,18.63
2022-08-17T01:36:00.652Z,20.02
2022-08-17T01:38:31.525Z,20.08
2022-08-17T01:41:04.693Z,21.05
2022-08-17T01:43:38.955Z,20.25
2022-08-17T01:46:05.646Z,19.23
2022-08-17T01:48:34.150Z,20.65
2022-08-17T01:51:01.150Z,19.85
2022-08-17T01:53:32.557Z,22.63
2022-08-17T01:56:04.023Z,21.65
2022-08-17T01:58:32.296Z,22.73
2022-08-17T02:01:01.292Z,20.70
2022-08-17T02:03:29.746Z,23.98
2022-08-17T02:05:56.476Z,23.45
2022-08-17T02:08:38.884Z,23.77
2022-08-17T02:11:12.156Z,25.53
2022-08-17T02:13:38.731Z,26.05
2022-08-17T02:16:05.594Z,26.02
2022-08-17T02:18:32.000Z,28.77
2022-08-17T02:20:58.587Z,24.85
2022-08-17T02:23:27.769Z,28.03
2022-08-17T02:25:57.057Z,25.27
2022-08-17T02:28:23.598Z,24.92
2022-08-17T02:31:01.694Z,24.30
2022-08-17T02:33:43.239Z,22.50
2022-08-17T02:36:11.774Z,19.33
2022-08-17T02:38:39.725Z,21.55
2022-08-17T02:41:06.563Z,21.35
2022-08-17T02:43:33.116Z,21.05
2022-08-17T02:45:59.504Z,22.13
2022-08-17T02:48:31.226Z,19.93
2022-08-17T02:50:58.827Z,22.52
2022-08-17T02:53:25.684Z,22.92
2022-08-17T02:55:52.996Z,21.77
2022-08-17T02:58:34.945Z,25.75
2022-08-17T03:01:03.693Z,22.90
2022-08-17T03:03:30.163Z,22.73
2022-08-17T03:05:56.552Z,20.60
2022-08-17T03:08:23.442Z,22.10
2022-08-17T03:10:50.404Z,23.40
2022-08-17T03:13:17.278Z,22.57
2022-08-17T03:15:45.910Z,19.27
2022-08-17T03:18:24.202Z,20.33
2022-08-17T03:20:52.004Z,18.35
2022-08-17T03:23:18.653Z,20.05
2022-08-17T03:25:50.563Z,20.40
2022-08-17T03:28:20.719Z,19.73
2022-08-17T03:30:47.314Z,20.15
2022-08-17T03:33:13.793Z,16.80
2022-08-17T03:35:41.165Z,18.13
2022-08-17T03:38:10.122Z,17.67
2022-08-17T03:40:57.059Z,15.93
2022-08-17T03:43:24.178Z,18.63
2022-08-17T03:46:24.906Z,17.08
2022-08-17T03:49:14.462Z,16.45
2022-08-17T03:51:59.150Z,17.20
2022-08-17T03:54:43.880Z,16.50
2022-08-17T03:57:12.455Z,15.30
2022-08-17T03:59:39.432Z,15.00
2022-08-17T04:02:19.637Z,12.80
2022-08-17T04:04:46.050Z,12.77
2022-08-17T04:07:12.609Z,13.18
2022-08-17T04:09:39.029Z,12.55
2022-08-17T04:12:05.708Z,13.52
2022-08-17T04:14:37.856Z,13.10
2022-08-17T04:17:21.588Z,11.17
2022-08-17T04:19:48.015Z,13.15
2022-08-17T04:22:30.461Z,12.50
2022-08-17T04:25:05.489Z,13.15
2022-08-17T04:27:31.924Z,13.00
2022-08-17T04:29:58.588Z,13.00
2022-08-17T04:33:03.551Z,15.70
2022-08-17T04:35:11.532Z,19.15
2022-08-17T04:37:37.903Z,16.45
2022-08-17T04:40:26.503Z,19.23
2022-08-17T04:43:01.667Z,15.67
2022-08-17T04:45:32.021Z,17.00
2022-08-17T04:47:59.618Z,18.77
2022-08-17T04:50:26.083Z,16.45
2022-08-17T04:52:52.496Z,16.60
2022-08-17T04:55:18.980Z,20.27
2022-08-17T04:57:45.456Z,20.52
2022-08-17T05:00:12.425Z,19.25
2022-08-17T05:02:50.915Z,20.33
2022-08-17T05:05:23.018Z,21.30
2022-08-17T05:07:54.331Z,19.57
2022-08-17T05:10:26.986Z,17.48
2022-08-17T05:13:07.542Z,19.17
2022-08-17T05:15:36.620Z,17.23
2022-08-17T05:18:03.867Z,18.77
2022-08-17T05:20:30.491Z,15.37
2022-08-17T05:23:00.079Z,16.58
2022-08-17T05:25:29.747Z,15.63
2022-08-17T05:27:59.383Z,16.05
2022-08-17T05:30:28.671Z,13.50
2022-08-17T05:32:56.639Z,14.03
2022-08-17T05:35:23.856Z,13.43
2022-08-17T05:37:50.695Z,13.30
2022-08-17T05:40:17.597Z,14.80
2022-08-17T05:42:44.141Z,11.75
2022-08-17T05:45:11.294Z,8.07
2022-08-17T05:47:40.762Z,9.88
2022-08-17T05:50:09.620Z,8.85
2022-08-17T05:52:56.741Z,8.88
2022-08-17T05:55:56.802Z,7.18
2022-08-17T05:58:41.993Z,7.87
2022-08-17T06:01:37.292Z,6.22
2022-08-17T06:04:27.659Z,6.75
2022-08-17T06:07:05.097Z,5.95
2022-08-17T06:09:40.527Z,6.32
2022-08-17T06:12:39.901Z,7.60
2022-08-17T06:15:24.832Z,7.30
2022-08-17T06:17:58.391Z,6.03
2022-08-17T06:20:28.332Z,8.77
2022-08-17T06:23:04.052Z,10.35
2022-08-17T06:25:36.505Z,7.47
2022-08-17T06:28:08.458Z,8.38
2022-08-17T06:31:00.666Z,8.68
2022-08-17T06:33:34.054Z,8.80
2022-08-17T06:36:26.344Z,8.68
2022-08-17T06:39:04.944Z,10.00
2022-08-17T06:41:43.574Z,8.57
2022-08-17T06:44:43.668Z,12.20
2022-08-17T06:47:13.556Z,10.45
2022-08-17T06:49:55.225Z,11.82
2022-08-17T06:52:47.286Z,10.13
2022-08-17T06:55:51.746Z,12.30
2022-08-17T06:58:24.262Z,10.18
2022-08-17T07:00:59.510Z,10.98
2022-08-17T07:03:37.890Z,11.45
2022-08-17T07:06:50.915Z,13.87
2022-08-17T07:09:28.677Z,11.55
2022-08-17T07:12:02.509Z,12.15
2022-08-17T07:14:51.572Z,13.68
2022-08-17T07:17:20.217Z,14.38
2022-08-17T07:19:49.596Z,12.57
2022-08-17T07:22:26.194Z,12.00
2022-08-17T07:24:58.289Z,13.45
2022-08-17T07:27:30.680Z,11.35
2022-08-17T07:30:04.689Z,10.90
2022-08-17T07:32:40.198Z,13.80
2022-08-17T07:35:21.993Z,13.23
2022-08-17T07:37:55.540Z,16.48
2022-08-17T07:40:33.935Z,12.88
2022-08-17T07:43:08.031Z,17.40
2022-08-17T07:46:14.236Z,14.27
2022-08-17T07:48:43.217Z,14.55
2022-08-17T07:51:33.795Z,14.13
2022-08-17T07:54:14.372Z,16.45
2022-08-17T07:56:55.159Z,15.68
2022-08-17T07:59:33.303Z,14.70
2022-08-17T08:02:21.801Z,18.92
2022-08-17T08:05:48.718Z,17.98
2022-08-17T08:08:32.847Z,15.85
2022-08-17T08:11:12.637Z,17.65
2022-08-17T08:13:43.682Z,19.27
2022-08-17T08:16:24.127Z,15.90
2022-08-17T08:18:56.837Z,15.30
2022-08-17T08:21:36.454Z,14.57
2022-08-17T08:24:30.749Z,14.70
2022-08-17T08:27:11.264Z,15.30
2022-08-17T08:29:47.906Z,14.30
2022-08-17T08:32:36.811Z,11.55
2022-08-17T08:35:26.804Z,12.38
2022-08-17T08:38:02.937Z,10.77
2022-08-17T08:40:55.676Z,9.93
2022-08-17T08:43:52.891Z,10.95
2022-08-17T08:46:28.455Z,8.27
2022-08-17T08:49:14.403Z,10.07
2022-08-17T08:51:47.002Z,7.90
2022-08-17T08:54:38.403Z,8.40
2022-08-17T08:57:33.653Z,8.23
2022-08-17T09:00:17.628Z,9.75
2022-08-17T09:02:46.669Z,9.13
2022-08-17T09:05:31.904Z,8.48
2022-08-17T09:08:10.973Z,9.07
2022-08-17T09:10:59.508Z,9.30
2022-08-17T09:13:46.513Z,7.53
2022-08-17T09:16:36.793Z,6.97
2022-08-17T09:19:31.879Z,6.50
2022-08-17T09:22:04.997Z,7.63
2022-08-17T09:24:39.989Z,8.13
2022-08-17T09:27:20.074Z,7.95
2022-08-17T09:29:51.477Z,7.55
2022-08-17T09:32:37.879Z,9.95
2022-08-17T09:35:14.568Z,7.33
2022-08-17T09:38:08.334Z,11.07
2022-08-17T09:41:01.067Z,8.63
2022-08-17T09:43:45.484Z,10.43
2022-08-17T09:46:19.574Z,11.27
2022-08-17T09:48:55.105Z,12.83
2022-08-17T09:51:30.837Z,12.18
2022-08-17T09:54:14.787Z,10.98
2022-08-17T09:57:28.743Z,10.35
2022-08-17T10:00:25.476Z,12.18
2022-08-17T10:03:17.087Z,11.33
2022-08-17T10:06:21.617Z,11.57
2022-08-17T10:09:07.312Z,11.93
2022-08-17T10:12:00.896Z,11.38
2022-08-17T10:14:43.970Z,10.88
2022-08-17T10:17:39.121Z,11.07
2022-08-17T10:20:26.164Z,9.77
2022-08-17T10:23:13.248Z,12.05
2022-08-17T10:26:12.855Z,11.45
2022-08-17T10:29:20.807Z,9.23
2022-08-17T10:31:53.845Z,9.00
2022-08-17T10:34:49.201Z,8.95
2022-08-17T10:37:41.502Z,10.77
2022-08-17T10:40:32.453Z,8.40
2022-08-17T10:43:11.675Z,9.25
2022-08-17T10:46:27.628Z,9.63
2022-08-17T10:49:15.753Z,10.05
2022-08-17T10:51:45.951Z,9.82
2022-08-17T10:54:34.825Z,10.38
2022-08-17T10:57:01.709Z,10.07
2022-08-17T10:59:37.163Z,10.77
2022-08-17T11:02:22.530Z,11.18
2022-08-17T11:04:49.522Z,11.75
2022-08-17T11:07:43.768Z,10.93
2022-08-17T11:10:45.540Z,11.40
2022-08-17T11:13:48.712Z,12.27
2022-08-17T11:16:42.994Z,11.68
2022-08-17T11:19:12.105Z,12.68
2022-08-17T11:22:05.753Z,13.30
2022-08-17T11:24:35.245Z,11.93
2022-08-17T11:27:30.644Z,12.67
2022-08-17T11:30:10.843Z,13.98
2022-08-17T11:32:54.843Z,14.70
2022-08-17T11:35:21.616Z,15.95
2022-08-17T11:37:56.654Z,14.90
2022-08-17T11:41:08.248Z,14.80
2022-08-17T11:43:47.656Z,17.58
2022-08-17T11:46:51.000Z,17.40
2022-08-17T11:49:54.246Z,21.92
2022-08-17T11:52:52.990Z,18.02
2022-08-17T11:55:57.108Z,21.20
2022-08-17T11:58:29.685Z,19.63
2022-08-17T12:01:06.007Z,22.20
2022-08-17T12:03:33.154Z,19.73
2022-08-17T12:06:17.615Z,21.90
2022-08-17T12:08:51.826Z,20.33
2022-08-17T12:11:58.598Z,22.75
2022-08-17T12:14:45.119Z,21.55
2022-08-17T12:17:22.426Z,23.30
2022-08-17T12:20:31.913Z,21.73
2022-08-17T12:23:21.280Z,25.23
2022-08-17T12:25:57.476Z,24.42
2022-08-17T12:28:33.568Z,29.35
2022-08-17T12:31:03.631Z,24.58
2022-08-17T12:33:30.458Z,24.23
2022-08-17T12:36:00.540Z,26.87
2022-08-17T12:38:33.320Z,24.55
2022-08-17T12:41:21.088Z,23.77
2022-08-17T12:44:02.001Z,24.52
2022-08-17T12:46:42.832Z,26.27
2022-08-17T12:49:32.199Z,24.13
2022-08-17T12:52:29.305Z,26.73
2022-08-17T12:55:00.312Z,26.38
2022-08-17T12:57:32.636Z,28.02
2022-08-17T13:00:17.575Z,24.15
2022-08-17T13:02:59.365Z,23.47
2022-08-17T13:05:29.702Z,27.25
2022-08-17T13:07:58.755Z,24.65
2022-08-17T13:10:32.901Z,28.15
2022-08-17T13:13:12.306Z,25.45
2022-08-17T13:15:51.139Z,26.17
2022-08-17T13:18:44.111Z,25.05
2022-08-17T13:21:19.438Z,26.73
2022-08-17T13:24:06.769Z,25.52
2022-08-17T13:26:45.623Z,26.90
2022-08-17T13:29:25.500Z,27.73
2022-08-17T13:32:13.498Z,27.77
2022-08-17T13:34:45.754Z,28.02
2022-08-17T13:37:36.882Z,30.25
2022-08-17T13:40:09.473Z,30.92
2022-08-17T13:42:51.629Z,31.47
2022-08-17T13:45:36.168Z,27.85
2022-08-17T13:48:17.000Z,29.00
2022-08-17T13:50:48.761Z,31.85
2022-08-17T13:53:22.456Z,28.27
2022-08-17T13:55:56.266Z,27.30
2022-08-17T13:58:26.784Z,28.88
2022-08-17T14:00:53.661Z,29.35
2022-08-17T14:03:20.522Z,28.67
2022-08-17T14:05:50.058Z,28.80
2022-08-17T14:08:19.423Z,28.53
2022-08-17T14:10:57.217Z,28.92
2022-08-17T14:13:23.793Z,32.67
2022-08-17T14:15:54.854Z,28.25
2022-08-17T14:18:49.835Z,27.13
2022-08-17T14:21:09.682Z,25.93
2022-08-17T14:23:36.971Z,26.05
2022-08-17T14:26:04.964Z,27.80
2022-08-17T14:28:32.059Z,27.15
2022-08-17T14:30:58.853Z,25.05
2022-08-17T14:33:25.400Z,27.03
2022-08-17T14:35:53.497Z,26.10
2022-08-17T14:38:20.831Z,24.45
2022-08-17T14:40:49.079Z,26.23
2022-08-17T14:43:15.773Z,24.13
2022-08-17T14:45:42.792Z,24.67
2022-08-17T14:48:09.479Z,23.02
2022-08-17T14:50:38.622Z,22.75
2022-08-17T14:53:07.295Z,23.27
2022-08-17T14:55:34.708Z,23.60
2022-08-17T14:58:01.195Z,22.43
2022-08-17T15:00:28.448Z,23.95
2022-08-17T15:02:58.236Z,22.25
2022-08-17T15:05:31.338Z,25.13
2022-08-17T15:07:59.601Z,26.05
2022-08-17T15:10:26.133Z,23.23
2022-08-17T15:12:52.590Z,24.48
2022-08-17T15:15:19.186Z,24.48
2022-08-17T15:17:46.231Z,23.77
2022-08-17T15:20:17.282Z,23.27
2022-08-17T15:22:45.535Z,23.60
2022-08-17T15:25:12.802Z,24.35
2022-08-17T15:27:40.163Z,23.80
2022-08-17T15:30:08.094Z,22.83
2022-08-17T15:32:37.957Z,22.52
2022-08-17T15:35:06.661Z,22.07
2022-08-17T15:37:33.355Z,22.95
2022-08-17T15:40:01.257Z,22.55
2022-08-17T15:42:29.143Z,21.73
2022-08-17T15:44:55.522Z,23.23
2022-08-17T15:47:22.232Z,21.90
2022-08-17T15:49:48.687Z,20.23
2022-08-17T15:52:24.779Z,20.70
2022-08-17T15:54:56.362Z,20.98
2022-08-17T15:57:25.095Z,19.33
2022-08-17T15:59:58.446Z,18.97
2022-08-17T16:03:46.198Z,20.13
2022-08-17T16:05:24.166Z,20.85
2022-08-17T16:07:52.076Z,17.13
2022-08-17T16:10:19.480Z,14.80
2022-08-17T16:12:47.831Z,16.40
2022-08-17T16:15:14.773Z,15.93
2022-08-17T16:17:43.991Z,15.57
2022-08-17T16:20:20.233Z,14.35
2022-08-17T16:22:48.015Z,15.07
2022-08-17T16:25:18.695Z,15.20
2022-08-17T16:27:46.483Z,15.63
2022-08-17T16:30:17.640Z,16.33
2022-08-17T16:32:45.188Z,18.05
2022-08-17T16:35:17.206Z,15.60
2022-08-17T16:37:45.448Z,15.57
2022-08-17T16:40:13.567Z,18.40
2022-08-17T16:42:40.474Z,18.95
2022-08-17T16:45:09.676Z,17.02
2022-08-17T16:47:36.584Z,19.20
2022-08-17T16:50:07.727Z,18.40
2022-08-17T16:52:34.326Z,16.23
2022-08-17T16:55:02.512Z,18.00
2022-08-17T16:57:29.910Z,17.73
2022-08-17T16:59:57.251Z,16.70
2022-08-17T17:02:36.368Z,20.23
2022-08-17T17:05:13.621Z,19.33
2022-08-17T17:08:00.742Z,20.73
2022-08-17T17:10:43.181Z,21.17
2022-08-17T17:13:14.821Z,21.15
2022-08-17T17:15:55.040Z,22.77
2022-08-17T17:18:31.651Z,21.90
2022-08-17T17:20:59.186Z,20.80
2022-08-17T17:23:41.632Z,22.70
2022-08-17T17:26:34.536Z,21.35
2022-08-17T17:29:12.549Z,20.40
2022-08-17T17:31:54.805Z,21.65
2022-08-17T17:34:22.584Z,20.90
2022-08-17T17:37:01.473Z,22.50
2022-08-17T17:39:51.205Z,23.08
2022-08-17T17:42:21.967Z,23.10
2022-08-17T17:45:04.739Z,20.52
2022-08-17T17:47:31.753Z,26.13
2022-08-17T17:50:00.882Z,23.88
2022-08-17T17:52:52.097Z,25.23
2022-08-17T17:55:37.302Z,22.97
2022-08-17T17:58:19.521Z,28.02
2022-08-17T18:01:04.865Z,24.05
2022-08-17T18:04:16.965Z,23.90
2022-08-17T18:07:22.877Z,22.95
2022-08-17T18:10:37.986Z,25.07
2022-08-17T18:13:16.338Z,24.50
2022-08-17T18:15:53.690Z,26.05
2022-08-17T18:18:39.322Z,22.52
2022-08-17T18:21:15.561Z,23.92
2022-08-17T18:23:50.777Z,25.37
2022-08-17T18:26:57.318Z,23.92
2022-08-17T18:29:31.461Z,27.85
2022-08-17T18:32:21.684Z,25.25
2022-08-17T18:34:54.356Z,28.80
2022-08-17T18:37:41.122Z,27.30
2022-08-17T18:40:35.481Z,29.95
2022-08-17T18:43:06.516Z,32.65
2022-08-17T18:45:41.648Z,33.88
2022-08-17T18:48:19.087Z,38.92
2022-08-17T18:50:45.765Z,42.03
2022-08-17T18:53:33.418Z,40.25
2022-08-17T18:56:26.160Z,46.85
2022-08-17T18:59:02.019Z,39.63
2022-08-17T19:01:59.912Z,41.90
2022-08-17T19:04:32.790Z,46.63
2022-08-17T19:07:21.953Z,37.70
2022-08-17T19:09:52.471Z,38.92
2022-08-17T19:12:31.381Z,38.85
2022-08-17T19:14:59.534Z,35.17
2022-08-17T19:17:36.156Z,41.97
2022-08-17T19:20:32.770Z,40.40
2022-08-17T19:23:22.000Z,35.17
2022-08-17T19:25:54.213Z,34.20
2022-08-17T19:28:38.508Z,36.55
2022-08-17T19:31:16.501Z,37.57
2022-08-17T19:33:42.905Z,38.70
2022-08-17T19:36:21.406Z,38.38
2022-08-17T19:39:00.764Z,38.03
2022-08-17T19:41:39.731Z,40.47
2022-08-17T19:44:35.465Z,39.13
2022-08-17T19:47:54.182Z,38.00
2022-08-17T19:50:38.961Z,36.40
2022-08-17T19:53:23.375Z,36.80
2022-08-17T19:56:31.580Z,31.17
2022-08-17T19:59:05.836Z,36.43
2022-08-17T20:01:41.057Z,33.17
2022-08-17T20:04:15.880Z,36.67
2022-08-17T20:06:45.384Z,34.67
2022-08-17T20:09:21.031Z,31.35
2022-08-17T20:12:01.588Z,31.60
2022-08-17T20:14:36.460Z,32.22
2022-08-17T20:17:04.136Z,31.75
2022-08-17T20:19:56.866Z,31.45
2022-08-17T20:22:30.855Z,29.50
2022-08-17T20:25:30.493Z,28.67
2022-08-17T20:28:06.150Z,31.48
2022-08-17T20:30:37.917Z,29.55
2022-08-17T20:33:06.752Z,27.58
2022-08-17T20:35:37.056Z,29.60
2022-08-17T20:38:07.581Z,28.57
2022-08-17T20:40:38.934Z,31.48
2022-08-17T20:43:42.755Z,35.17
2022-08-17T20:46:14.812Z,32.40
2022-08-17T20:48:44.260Z,32.25
2022-08-17T20:51:34.605Z,32.53
2022-08-17T20:54:08.341Z,30.67
2022-08-17T20:56:57.443Z,29.38
2022-08-17T20:59:25.446Z,28.77
2022-08-17T21:02:17.638Z,29.20
2022-08-17T21:04:50.855Z,27.87
2022-08-17T21:07:33.097Z,32.00
2022-08-17T21:10:14.838Z,31.20
2022-08-17T21:12:47.895Z,24.58
2022-08-17T21:15:51.607Z,26.58
2022-08-17T21:18:38.523Z,31.70
2022-08-17T21:21:25.842Z,27.48
2022-08-17T21:24:26.298Z,25.88
2022-08-17T21:27:05.290Z,25.48
2022-08-17T21:29:34.006Z,26.63
2022-08-17T21:32:03.452Z,25.87
2022-08-17T21:34:38.333Z,25.63
2022-08-17T21:37:19.846Z,26.38
2022-08-17T21:39:51.672Z,21.25
2022-08-17T21:42:24.976Z,23.77
2022-08-17T21:44:57.846Z,25.17
2022-08-17T21:47:27.461Z,24.77
2022-08-17T21:50:15.951Z,23.80
2022-08-17T21:52:43.334Z,21.08
2022-08-17T21:55:19.954Z,22.55
2022-08-17T21:57:52.916Z,22.40
2022-08-17T22:00:35.545Z,20.83
2022-08-17T22:03:04.325Z,18.70
2022-08-17T22:05:39.624Z,19.42
2022-08-17T22:08:16.833Z,18.55
2022-08-17T22:10:45.830Z,18.97
2022-08-17T22:13:16.844Z,18.77
2022-08-17T22:15:47.126Z,24.67
2022-08-17T22:18:22.147Z,19.10
2022-08-17T22:20:51.287Z,17.85
2022-08-17T22:23:59.252Z,18.87
2022-08-17T22:26:47.512Z,18.13
2022-08-17T22:29:56.974Z,16.73
2022-08-17T22:32:31.666Z,17.65
2022-08-17T22:35:32.543Z,18.17
2022-08-17T22:38:19.157Z,16.40
2022-08-17T22:41:07.120Z,16.20
2022-08-17T22:43:37.929Z,19.40
2022-08-17T22:46:10.433Z,15.90
2022-08-17T22:48:37.781Z,16.27
2022-08-17T22:51:13.965Z,17.53
2022-08-17T22:54:07.995Z,17.98
2022-08-17T22:56:53.341Z,16.15
2022-08-17T22:59:36.887Z,15.85
2022-08-17T23:02:24.159Z,16.42
2022-08-17T23:05:16.531Z,16.93
2022-08-17T23:07:45.426Z,16.02
2022-08-17T23:10:13.174Z,16.70
2022-08-17T23:12:39.808Z,15.82
2022-08-17T23:15:14.217Z,16.15
2022-08-17T23:17:41.890Z,16.07
2022-08-17T23:20:12.046Z,13.48
2022-08-17T23:22:51.710Z,18.02
2022-08-17T23:25:25.773Z,15.75
2022-08-17T23:27:52.424Z,17.90
2022-08-17T23:30:19.157Z,16.87
2022-08-17T23:32:53.735Z,16.83
2022-08-17T23:35:39.697Z,16.42
2022-08-17T23:38:07.534Z,18.55
2022-08-17T23:40:34.460Z,16.00
2022-08-17T23:43:00.859Z,17.33
2022-08-17T23:45:32.327Z,17.17
2022-08-17T23:47:58.676Z,13.75
2022-08-17T23:50:25.036Z,19.08
2022-08-17T23:52:56.412Z,16.67
2022-08-17T23:55:22.816Z,18.60
2022-08-17T23:57:49.457Z,17.60
